• Join FlightAware (Why Join?)
  • Login
  • US Flag 
06:03AM EDT


 

Airport Tracker/Info


-or-


 

Live Flight TrackerFlight Track Log ✈ AWE3315 ✈ 10-May-2013 ✈ KPHL - KATL

Flight Track Log - Related Links

Times and Time Zones

All times are in EDT time to prevent confusion due to time zone crossing. See the AWE3315 flight status page for this flight to view local times or setup timezone preferences in your user account.

Time Position Orientation Groundspeed Altitude Reporting Facility
EDT Latitude Longitude Course Direction KTS MPH feet Rate Location/Type
10:24AM 39.8667 -75.2833 258° West 151 174 900  Level Philadelphia TRACON
10:25AM 39.8500 -75.3500 252° West 209 241 2,700 2,340 Climbing Philadelphia TRACON
10:26AM 39.8358 -75.5975 218° Southwest  Level FlightAware Approximate
10:26AM 39.8333 -75.4333 255° West 259 298 5,900  Level Philadelphia TRACON
10:27AM 39.8334 -75.7225 270° West  Level FlightAware Approximate
10:28AM 39.8227 -75.8476 258° West  Level FlightAware Approximate
10:28AM 39.8389 -75.6183 272° West 273 314 10,000  Level New York Center
10:29AM 39.8020 -75.9713 258° West  Level FlightAware Approximate
10:29AM 39.8369 -75.7156 269° West 283 326 11,000  Level New York Center
10:30AM 39.8114 -75.8244 253° West 289 333 13,800 2,520 Climbing New York Center
10:31AM 39.7658 -75.9131 236° Southwest 313 360 16,100 2,400 Climbing New York Center
10:32AM 39.7131 -76.0200 237° Southwest 334 384 18,600 2,400 Climbing New York Center
10:33AM 39.6869 -76.1367 254° West 334 384 20,900 1,860 Climbing New York Center
10:35AM 39.6339 -76.3756 254° West 345 397 24,500 1,680 Climbing Washington Center
10:36AM 39.5872 -76.4936 243° Southwest 363 418 26,100 1,680 Climbing Washington Center
10:37AM 39.5072 -76.6136 229° Southwest 408 470 27,900 1,620 Climbing Washington Center
10:38AM 39.4417 -76.7203 232° Southwest 402 463 29,300 1,260 Climbing Washington Center
10:39AM 39.3717 -76.8344 232° Southwest 396 456 30,400 900 Climbing Washington Center
10:40AM 39.2997 -76.9458 230° Southwest 402 463 31,200 780 Climbing Washington Center
10:41AM 39.2275 -77.0653 232° Southwest 414 476 32,000  Climbing Washington Center
10:42AM 39.1550 -77.1789 231° Southwest 419 482 31,300 -1,020 Descending Washington Center
10:43AM 39.0847 -77.2922 231° Southwest 414 476 30,000 -660 Descending Washington Center
10:44AM 39.0122 -77.4028 230° Southwest 414 476 30,000  Level Washington Center
10:45AM 38.9419 -77.5133 231° Southwest 414 476 30,000  Level Washington Center
10:46AM 38.8797 -77.6131 231° Southwest 414 476 30,000  Level Washington Center
10:47AM 38.8069 -77.7256 230° Southwest 414 476 30,000  Level Washington Center
10:48AM 38.7361 -77.8353 230° Southwest 414 476 30,000  Level Washington Center
10:49AM 38.6653 -77.9475 231° Southwest 414 476 30,000  Level Washington Center
10:50AM 38.5919 -78.0592 230° Southwest 414 476 30,000  Level Washington Center
10:51AM 38.5208 -78.1711 231° Southwest 414 476 30,000  Level Washington Center
10:52AM 38.4497 -78.2825 231° Southwest 414 476 30,000  Level Washington Center
10:53AM 38.3783 -78.3911 230° Southwest 414 476 30,000  Level Washington Center
10:54AM 38.3069 -78.4997 230° Southwest 414 476 30,000  Level Washington Center
10:55AM 38.2397 -78.6081 232° Southwest 414 476 30,000  Level Washington Center
10:56AM 38.1703 -78.7136 230° Southwest 408 470 30,000  Level Washington Center
10:57AM 38.0964 -78.8239 230° Southwest 408 470 30,000  Level Washington Center
10:58AM 38.0225 -78.9314 229° Southwest 413 475 30,000 -360 Level Washington Center
10:59AM 37.9439 -79.0517 230° Southwest 413 475 29,300 -1,020 Descending Washington Center
11:00AM 37.8722 -79.1539 228° Southwest 413 475 28,000 -660 Descending Washington Center
11:01AM 37.7983 -79.2553 227° Southwest 402 463 28,000  Level Washington Center
11:02AM 37.7328 -79.3467 228° Southwest 396 456 28,000  Level Washington Center
11:03AM 37.6522 -79.4556 227° Southwest 396 456 28,000  Level Washington Center
11:04AM 37.5800 -79.5567 228° Southwest 396 456 28,000  Level Washington Center
11:05AM 37.5058 -79.6550 226° Southwest 396 456 28,000  Level Washington Center
11:06AM 37.4314 -79.7583 228° Southwest 396 456 28,000  Level Washington Center
11:07AM 37.3656 -79.8486 227° Southwest 407 468 28,000  Level Washington Center
11:08AM 37.2911 -79.9489 227° Southwest 401 461 28,000  Level Washington Center
11:10AM 37.1333 -80.1597 227° Southwest 399 459 28,000  Level Atlanta Center
11:11AM 37.0594 -80.2597 227° Southwest 394 453 28,000  Level Atlanta Center
11:12AM 36.9853 -80.3567 226° Southwest 394 453 28,000  Level Atlanta Center
11:13AM 36.9192 -80.4456 227° Southwest 394 453 28,000  Level Atlanta Center
11:14AM 36.8447 -80.5422 226° Southwest 388 447 28,000  Level Atlanta Center
11:15AM 36.7725 -80.6386 227° Southwest 383 441 28,000  Level Atlanta Center
11:16AM 36.6942 -80.7483 228° Southwest 383 441 28,000  Level Atlanta Center
11:17AM 36.6194 -80.8469 227° Southwest 383 441 28,000  Level Atlanta Center
11:18AM 36.5469 -80.9431 227° Southwest 383 441 28,000  Level Atlanta Center
11:19AM 36.4742 -81.0414 227° Southwest 383 441 28,000  Level Atlanta Center
11:20AM 36.3994 -81.1422 227° Southwest 383 441 28,000  Level Atlanta Center
11:21AM 36.3347 -81.2244 226° Southwest 388 447 28,000  Level Atlanta Center
11:22AM 36.2597 -81.3222 226° Southwest 383 441 28,000  Level Atlanta Center
11:23AM 36.1889 -81.4172 227° Southwest 383 441 28,000  Level Atlanta Center
11:24AM 36.1136 -81.5122 226° Southwest 383 441 28,000  Level Atlanta Center
11:25AM 36.0425 -81.6069 227° Southwest 383 441 28,000  Level Atlanta Center
11:26AM 35.9653 -81.7042 226° Southwest 383 441 28,000  Level Atlanta Center
11:27AM 35.8919 -81.8011 227° Southwest 388 447 28,000  Level Atlanta Center
11:28AM 35.8164 -81.8953 225° Southwest 388 447 28,000  Level Atlanta Center
11:29AM 35.7450 -81.9919 228° Southwest 383 441 28,000  Level Atlanta Center
11:30AM 35.6694 -82.0883 226° Southwest 383 441 28,000  Level Atlanta Center
11:31AM 35.5811 -82.1875 222° Southwest 388 447 28,000  Level Atlanta Center
11:32AM 35.5011 -82.2761 222° Southwest 394 453 28,000 -840 Level Atlanta Center
11:33AM 35.4253 -82.3642 223° Southwest 394 453 26,400 -1,860 Descending Atlanta Center
11:34AM 35.3492 -82.4525 223° Southwest 386 444 24,300 -1,200 Descending Atlanta Center
11:35AM 35.2750 -82.5328 221° Southwest 366 421 24,000 -180 Descending Atlanta Center
11:36AM 35.2008 -82.6153 222° Southwest 366 421 24,000  Level Atlanta Center
11:37AM 35.1267 -82.7006 223° Southwest 366 421 24,000  Level Atlanta Center
11:38AM 35.0525 -82.7853 223° Southwest 366 421 24,000  Level Atlanta Center
11:39AM 34.9803 -82.8625 221° Southwest 366 421 24,000  Level Atlanta Center
11:40AM 34.9122 -82.9369 222° Southwest 371 427 24,000  Level Atlanta Center
11:41AM 34.8378 -83.0264 225° Southwest 371 427 24,000  Level Atlanta Center
11:42AM 34.7592 -83.1058 220° Southwest 371 427 24,000  Level Atlanta Center
11:43AM 34.6844 -83.1875 222° Southwest 366 421 24,000  Level Atlanta Center
11:44AM 34.6078 -83.2742 223° Southwest 371 427 24,000 -300 Level Atlanta Center
11:45AM 34.5208 -83.3656 221° Southwest 371 427 23,500 -1,200 Descending Atlanta Center
11:46AM 34.4503 -83.4494 224° Southwest 371 427 21,600 -1,920 Descending Atlanta Center
11:47AM 34.3797 -83.5278 223° Southwest 361 415 19,700 -1,860 Descending Atlanta Center
11:48AM 34.3131 -83.6011 222° Southwest 346 398 17,900 -1,740 Descending Atlanta Center
11:49AM 34.2486 -83.6669 220° Southwest 325 374 16,300 -1,620 Descending Atlanta Center
11:50AM 34.1864 -83.7375 223° Southwest 315 362 14,700 -1,680 Descending Atlanta Center
11:51AM 34.1239 -83.8081 223° Southwest 310 357 13,000 -1,260 Descending Atlanta Center
11:52AM 34.0500 -83.8833 220° Southwest 274 315 12,000 -1,080 Descending Atlanta TRACON
11:53AM 34.0000 -83.9333 220° Southwest 272 313 10,800 -1,500 Descending Atlanta TRACON
11:54AM 33.9333 -84.0000 220° Southwest 268 308 9,100 -1,320 Descending Atlanta TRACON
11:55AM 33.8833 -84.0333 209° Southwest 262 302 8,400 -1,200 Descending Atlanta TRACON
11:56AM 33.8333 -84.0833 220° Southwest 252 290 6,900 -1,260 Descending Atlanta TRACON
11:57AM 33.7756 -84.1189 207° Southwest 258 297 6,000 -960 Descending Atlanta Center
11:58AM 33.7106 -84.1636 210° Southwest 253 291 5,100 -1,020 Descending Atlanta Center
11:59AM 33.6667 -84.2167 225° Southwest 233 268 4,000 -960 Descending Atlanta TRACON
12:00PM 33.6500 -84.2833 253° West 186 214 3,200 -840 Descending Atlanta TRACON